Time;durP1;ratioP1;P1;durP2;ratioP2;P2;SDS_P1;SDS_P2;PMS_P1;PMS_P2;Temp;Humidity;BMP_temperature;BMP_pressure;BME280_temperature;BME280_humidity;BME280_pressure;Samples;Min_cycle;Max_cycle;Signal;HPM_P1;HPM_P2
2023/01/19 00:01:18;;;;;;;0.00;0.00;;;3.80;93.20;;;;;;4974451;28;20499;-72
2023/01/19 00:03:45;;;;;;;0.00;0.00;;;3.90;93.20;;;;;;4992518;28;20089;-73
2023/01/19 00:06:10;;;;;;;0.00;0.00;;;3.90;93.20;;;;;;4991949;28;20105;-72
2023/01/19 00:08:37;;;;;;;0.08;0.08;;;3.90;93.30;;;;;;4991961;28;20046;-72
2023/01/19 00:11:04;;;;;;;0.00;0.00;;;3.90;93.30;;;;;;4991899;28;20085;-73
2023/01/19 00:13:30;;;;;;;0.00;0.00;;;4.00;93.30;;;;;;4992176;28;20133;-72
2023/01/19 00:15:55;;;;;;;0.00;0.00;;;4.00;93.40;;;;;;4991552;28;20052;-73
2023/01/19 00:18:21;;;;;;;0.00;0.00;;;4.00;93.40;;;;;;4992586;28;20050;-72
2023/01/19 00:20:47;;;;;;;0.05;0.05;;;4.00;93.30;;;;;;4974651;28;20129;-72
2023/01/19 00:23:14;;;;;;;0.00;0.00;;;4.00;93.30;;;;;;4991948;28;20569;-72
2023/01/19 00:25:43;;;;;;;0.00;0.00;;;4.10;93.30;;;;;;4958032;28;20042;-72
2023/01/19 00:28:10;;;;;;;0.00;0.00;;;4.00;93.30;;;;;;4991948;28;20053;-72
2023/01/19 00:30:37;;;;;;;0.00;0.00;;;4.00;93.40;;;;;;4991577;28;20525;-72
2023/01/19 00:33:02;;;;;;;0.00;0.00;;;4.00;93.30;;;;;;4991329;28;20057;-72
2023/01/19 00:35:28;;;;;;;0.00;0.00;;;4.00;93.30;;;;;;4991271;28;20042;-72
2023/01/19 00:37:55;;;;;;;0.10;0.10;;;4.10;93.30;;;;;;4989545;28;20527;-72
2023/01/19 00:40:21;;;;;;;0.10;0.10;;;4.00;93.40;;;;;;4991497;28;20046;-72
2023/01/19 00:42:47;;;;;;;0.00;0.00;;;4.00;93.40;;;;;;4991465;28;20097;-72
2023/01/19 00:45:18;;;;;;;0.00;0.00;;;4.00;93.40;;;;;;4991189;28;20046;-72
2023/01/19 00:47:44;;;;;;;0.00;0.00;;;4.00;93.40;;;;;;4987491;28;20078;-72
2023/01/19 00:50:11;;;;;;;0.00;0.00;;;4.00;93.40;;;;;;4991093;28;20054;-72
2023/01/19 00:52:38;;;;;;;0.00;0.00;;;4.10;93.50;;;;;;4990511;28;20057;-73
2023/01/19 00:55:05;;;;;;;0.10;0.10;;;4.00;93.50;;;;;;4990668;28;20035;-73
2023/01/19 00:57:30;;;;;;;0.00;0.00;;;4.10;93.50;;;;;;4991352;28;20053;-73
2023/01/19 00:59:56;;;;;;;0.00;0.00;;;4.10;93.60;;;;;;4991136;28;20487;-73
2023/01/19 01:02:21;;;;;;;0.10;0.10;;;4.10;93.70;;;;;;4991256;28;20751;-73
2023/01/19 01:04:47;;;;;;;0.00;0.00;;;4.00;93.80;;;;;;4990934;28;20052;-74
2023/01/19 01:07:12;;;;;;;0.00;0.00;;;4.10;93.80;;;;;;4990920;28;20062;-73
2023/01/19 01:09:38;;;;;;;0.20;0.20;;;4.00;93.60;;;;;;4991347;28;20535;-73
2023/01/19 01:12:04;;;;;;;0.00;0.00;;;4.00;93.60;;;;;;4990765;28;20052;-73
2023/01/19 01:14:29;;;;;;;0.00;0.00;;;4.00;93.60;;;;;;4973216;28;20055;-73
2023/01/19 01:16:55;;;;;;;0.00;0.00;;;4.00;93.50;;;;;;4957072;28;20042;-73
2023/01/19 01:19:21;;;;;;;0.57;0.57;;;3.90;93.50;;;;;;4987442;28;20034;-73
2023/01/19 01:21:46;;;;;;;0.00;0.00;;;3.90;93.50;;;;;;4970205;28;20086;-74
2023/01/19 01:24:12;;;;;;;0.00;0.00;;;3.90;93.50;;;;;;4988316;28;20050;-73
2023/01/19 01:26:37;;;;;;;0.10;0.10;;;4.00;93.50;;;;;;4990850;28;20202;-73
2023/01/19 01:29:04;;;;;;;0.00;0.00;;;4.00;93.50;;;;;;4990644;28;20411;-73
2023/01/19 01:31:30;;;;;;;0.00;0.00;;;3.90;93.50;;;;;;4990388;28;20049;-73
2023/01/19 01:33:56;;;;;;;0.05;0.05;;;4.00;93.50;;;;;;4970132;28;20043;-73
2023/01/19 01:36:22;;;;;;;0.00;0.00;;;3.90;93.50;;;;;;4988808;28;20050;-73
2023/01/19 01:38:47;;;;;;;0.00;0.00;;;4.00;93.50;;;;;;4991009;28;20042;-73
2023/01/19 01:41:13;;;;;;;0.00;0.00;;;3.90;93.50;;;;;;4989990;28;20133;-73
2023/01/19 01:43:52;;;;;;;0.00;0.00;;;4.00;93.60;;;;;;4990440;28;20074;-73
2023/01/19 01:46:18;;;;;;;0.00;0.00;;;3.90;93.60;;;;;;4989475;28;20057;-73
2023/01/19 01:49:02;;;;;;;0.10;0.10;;;4.00;93.60;;;;;;4990501;28;20416;-73
2023/01/19 01:51:45;;;;;;;0.00;0.00;;;4.00;93.70;;;;;;4972431;28;20045;-73
2023/01/19 01:54:28;;;;;;;0.05;0.05;;;4.00;93.70;;;;;;4990181;28;20046;-73
2023/01/19 01:56:59;;;;;;;0.00;0.00;;;4.00;93.70;;;;;;4973063;28;20042;-73
2023/01/19 01:59:33;;;;;;;0.00;0.00;;;4.10;93.80;;;;;;4989464;28;20053;-73
2023/01/19 02:04:52;;;;;;;0.00;0.00;;;4.10;93.80;;;;;;4989584;28;20058;-73
2023/01/19 02:13:38;;;;;;;0.15;0.15;;;4.10;93.70;;;;;;4989892;28;20562;-73
2023/01/19 02:16:08;;;;;;;0.00;0.00;;;4.10;93.60;;;;;;4956379;28;20100;-73
2023/01/19 02:18:34;;;;;;;0.10;0.10;;;4.10;93.60;;;;;;4972540;28;20046;-73
2023/01/19 02:21:09;;;;;;;0.00;0.00;;;4.10;93.70;;;;;;4989050;28;20384;-73
2023/01/19 02:23:44;;;;;;;0.00;0.00;;;4.10;93.70;;;;;;4968523;28;20113;-73
2023/01/19 02:26:14;;;;;;;0.00;0.00;;;4.10;93.50;;;;;;4984593;28;20053;-73
2023/01/19 02:28:43;;;;;;;0.00;0.00;;;4.10;93.50;;;;;;4989689;28;20521;-73
2023/01/19 02:31:10;;;;;;;0.00;0.00;;;4.10;93.50;;;;;;4989389;28;20422;-73
2023/01/19 02:33:36;;;;;;;0.10;0.10;;;4.00;93.30;;;;;;4972669;28;20050;-73
2023/01/19 02:36:03;;;;;;;0.00;0.00;;;4.00;93.20;;;;;;4988515;28;20519;-73
2023/01/19 02:38:29;;;;;;;0.00;0.00;;;4.00;93.10;;;;;;4971844;28;20042;-73
2023/01/19 02:40:57;;;;;;;0.00;0.00;;;4.00;92.90;;;;;;4971341;28;20049;-73
2023/01/19 02:43:23;;;;;;;0.00;0.00;;;4.00;92.70;;;;;;4989656;28;20054;-74
2023/01/19 02:45:49;;;;;;;0.00;0.00;;;4.20;92.90;;;;;;4989055;28;20089;-74
2023/01/19 02:48:19;;;;;;;0.10;0.10;;;4.20;92.60;;;;;;4989147;28;20038;-74
2023/01/19 02:50:49;;;;;;;0.00;0.00;;;4.20;92.70;;;;;;4971360;28;20399;-74
2023/01/19 02:53:24;;;;;;;0.00;0.00;;;4.30;92.70;;;;;;4953505;28;20046;-74
2023/01/19 02:56:01;;;;;;;0.00;0.00;;;4.30;92.70;;;;;;4989319;28;20436;-73
2023/01/19 02:58:42;;;;;;;1.20;1.10;;;4.40;92.60;;;;;;4971956;28;20051;-73
2023/01/19 03:01:24;;;;;;;0.00;0.00;;;4.50;91.90;;;;;;4976489;28;20760;-73
2023/01/19 03:03:55;;;;;;;;;;;4.50;91.60;;;;;;4976557;28;20491;-73
2023/01/19 03:06:48;;;;;;;0.00;0.00;;;4.40;91.40;;;;;;4991973;28;19980;-73
2023/01/19 03:09:34;;;;;;;0.00;0.00;;;4.30;91.10;;;;;;4976095;28;20054;-74
2023/01/19 03:12:22;;;;;;;0.00;0.00;;;4.20;91.10;;;;;;4994219;28;20074;-74
2023/01/19 03:14:48;;;;;;;0.00;0.00;;;4.40;91.10;;;;;;4983873;28;20062;-73
2023/01/19 03:17:16;;;;;;;0.00;0.00;;;4.50;90.50;;;;;;4993732;28;20093;-74
2023/01/19 03:19:47;;;;;;;0.00;0.00;;;4.50;90.30;;;;;;4974126;28;20138;-73
2023/01/19 03:22:26;;;;;;;0.10;0.10;;;4.40;89.90;;;;;;4993617;28;20043;-73
2023/01/19 03:24:55;;;;;;;0.00;0.00;;;4.40;90.10;;;;;;4992076;28;20046;-73
2023/01/19 03:27:26;;;;;;;0.00;0.00;;;4.30;90.20;;;;;;4992993;28;20069;-73
2023/01/19 03:29:56;;;;;;;0.00;0.00;;;4.40;90.30;;;;;;4973422;28;20140;-73
2023/01/19 03:32:29;;;;;;;0.00;0.00;;;4.20;90.60;;;;;;4975129;28;20516;-73
2023/01/19 03:34:59;;;;;;;0.10;0.10;;;4.20;90.80;;;;;;4973161;28;20562;-73
2023/01/19 03:37:29;;;;;;;0.30;0.30;;;4.10;91.00;;;;;;4991993;28;20072;-73
2023/01/19 03:39:55;;;;;;;0.00;0.00;;;4.20;90.70;;;;;;4993177;28;20101;-73
2023/01/19 03:42:22;;;;;;;0.00;0.00;;;4.20;90.70;;;;;;4975690;28;20061;-73
2023/01/19 03:44:50;;;;;;;0.00;0.00;;;4.20;90.80;;;;;;4992949;28;20042;-73
2023/01/19 03:47:17;;;;;;;0.00;0.00;;;4.20;90.80;;;;;;4991862;28;20049;-73
2023/01/19 03:49:45;;;;;;;0.00;0.00;;;4.20;90.90;;;;;;4971826;28;20089;-73
2023/01/19 03:52:11;;;;;;;0.00;0.00;;;4.20;91.10;;;;;;4988426;28;20074;-73
2023/01/19 03:54:37;;;;;;;0.10;0.10;;;4.30;91.10;;;;;;4992183;28;20043;-73
2023/01/19 03:57:03;;;;;;;0.00;0.00;;;4.40;91.30;;;;;;4971818;28;20070;-73
2023/01/19 03:59:28;;;;;;;0.10;0.10;;;4.40;91.40;;;;;;4956437;28;20532;-73
2023/01/19 04:01:54;;;;;;;0.00;0.00;;;4.50;91.20;;;;;;4991801;28;20121;-74
2023/01/19 04:04:19;;;;;;;0.00;0.00;;;4.50;91.30;;;;;;4972164;28;20635;-73
2023/01/19 04:06:45;;;;;;;0.00;0.00;;;4.60;91.50;;;;;;4991900;28;20411;-73
2023/01/19 04:09:10;;;;;;;0.00;0.00;;;4.70;91.40;;;;;;4991652;28;20410;-73
2023/01/19 04:11:36;;;;;;;0.00;0.00;;;4.70;91.50;;;;;;4992036;28;20046;-74
2023/01/19 04:14:02;;;;;;;0.00;0.00;;;4.60;91.60;;;;;;4991785;28;20054;-73
2023/01/19 04:16:27;;;;;;;0.00;0.00;;;4.70;91.80;;;;;;4992266;28;20161;-72
2023/01/19 04:18:53;;;;;;;0.00;0.00;;;4.70;91.70;;;;;;4992526;28;20061;-73
2023/01/19 04:21:19;;;;;;;0.00;0.00;;;4.80;91.40;;;;;;4958598;28;20081;-73
2023/01/19 04:23:45;;;;;;;0.00;0.00;;;4.90;91.10;;;;;;4973721;28;20093;-74
2023/01/19 04:26:10;;;;;;;0.00;0.00;;;4.80;91.20;;;;;;4974504;28;20057;-73
2023/01/19 04:28:36;;;;;;;0.00;0.00;;;4.70;91.00;;;;;;4991576;28;20640;-73
2023/01/19 04:31:03;;;;;;;0.00;0.00;;;4.90;90.80;;;;;;4991673;28;20042;-74
2023/01/19 04:33:29;;;;;;;0.10;0.10;;;4.90;90.30;;;;;;4992119;28;20038;-73
2023/01/19 04:35:55;;;;;;;0.00;0.00;;;4.70;90.30;;;;;;4991212;28;20061;-73
2023/01/19 04:38:24;;;;;;;0.00;0.00;;;4.60;90.30;;;;;;4991984;28;20080;-74
2023/01/19 04:40:51;;;;;;;0.10;0.10;;;4.60;90.30;;;;;;4991625;28;20141;-73
2023/01/19 04:43:17;;;;;;;0.00;0.00;;;4.50;90.20;;;;;;4990813;28;20093;-74
2023/01/19 04:45:44;;;;;;;0.00;0.00;;;4.50;90.10;;;;;;4972902;28;20048;-74
2023/01/19 04:48:10;;;;;;;0.00;0.00;;;4.50;90.00;;;;;;4991121;28;20057;-74
2023/01/19 04:50:36;;;;;;;0.10;0.10;;;4.40;90.00;;;;;;4991382;28;20073;-74
2023/01/19 04:53:01;;;;;;;0.00;0.00;;;4.30;90.00;;;;;;4971822;28;20449;-74
2023/01/19 04:55:27;;;;;;;0.00;0.00;;;4.20;90.00;;;;;;4991246;28;20117;-74
2023/01/19 04:57:53;;;;;;;0.00;0.00;;;4.20;90.10;;;;;;4991404;28;20056;-74
2023/01/19 05:00:19;;;;;;;0.00;0.00;;;4.20;90.10;;;;;;4973347;28;20042;-74
2023/01/19 05:02:45;;;;;;;1.55;1.38;;;4.20;90.20;;;;;;4991687;28;20050;-74
2023/01/19 05:05:11;;;;;;;0.08;0.08;;;4.10;90.20;;;;;;4990631;28;20050;-74
2023/01/19 05:07:37;;;;;;;0.00;0.00;;;4.10;90.30;;;;;;4990833;28;20054;-74
2023/01/19 05:10:03;;;;;;;0.40;0.40;;;4.10;90.20;;;;;;4957500;28;20046;-74
2023/01/19 05:12:29;;;;;;;0.00;0.00;;;4.00;90.20;;;;;;4990685;28;20038;-74
2023/01/19 05:14:54;;;;;;;0.00;0.00;;;4.00;90.30;;;;;;4970615;28;20047;-74
2023/01/19 05:17:20;;;;;;;0.08;0.08;;;4.00;90.20;;;;;;4989647;28;20116;-74
2023/01/19 05:19:46;;;;;;;0.00;0.00;;;3.90;90.30;;;;;;4970433;28;20077;-74
2023/01/19 05:22:12;;;;;;;0.00;0.00;;;3.90;90.30;;;;;;4978522;28;20047;-74
2023/01/19 05:24:38;;;;;;;0.20;0.20;;;3.90;90.30;;;;;;4987397;28;20100;-74
2023/01/19 05:27:03;;;;;;;0.00;0.00;;;3.90;90.30;;;;;;4990561;28;20062;-73
2023/01/19 05:29:29;;;;;;;0.00;0.00;;;3.80;90.30;;;;;;4970092;28;20101;-74
2023/01/19 05:31:55;;;;;;;0.00;0.00;;;3.80;90.40;;;;;;4988848;28;20121;-74
2023/01/19 05:34:20;;;;;;;0.00;0.00;;;3.90;90.50;;;;;;4990535;28;20619;-73
2023/01/19 05:36:46;;;;;;;0.00;0.00;;;3.80;90.50;;;;;;4989882;28;20460;-69
2023/01/19 05:39:12;;;;;;;0.00;0.00;;;3.80;90.50;;;;;;4983088;28;20475;-72
2023/01/19 05:41:38;;;;;;;0.20;0.20;;;3.90;90.30;;;;;;4956830;28;20464;-73
2023/01/19 05:44:04;;;;;;;0.00;0.00;;;4.00;90.10;;;;;;4972923;28;20050;-73
2023/01/19 05:46:29;;;;;;;0.03;0.03;;;4.00;90.10;;;;;;4972656;28;20124;-73
2023/01/19 05:48:55;;;;;;;0.10;0.10;;;4.10;90.00;;;;;;4989489;28;20054;-73
2023/01/19 05:51:20;;;;;;;0.00;0.00;;;4.20;89.90;;;;;;4956405;28;20061;-73
2023/01/19 05:53:46;;;;;;;0.00;0.00;;;4.20;89.90;;;;;;4971505;28;20149;-74
2023/01/19 05:56:11;;;;;;;0.00;0.00;;;4.20;89.90;;;;;;4990086;28;20419;-74
2023/01/19 05:58:40;;;;;;;0.00;0.00;;;4.20;89.50;;;;;;4990303;28;20050;-73
2023/01/19 06:01:08;;;;;;;0.00;0.00;;;4.20;89.50;;;;;;4971421;28;20488;-73
2023/01/19 06:03:34;;;;;;;0.00;0.00;;;4.30;89.30;;;;;;4986145;28;20042;-73
2023/01/19 06:06:00;;;;;;;0.00;0.00;;;4.30;89.30;;;;;;4989253;28;20050;-73
2023/01/19 06:08:26;;;;;;;0.00;0.00;;;4.30;89.40;;;;;;4972748;28;20451;-73
2023/01/19 06:10:51;;;;;;;1.65;1.55;;;4.30;89.50;;;;;;4995029;28;20042;-74
2023/01/19 06:13:17;;;;;;;0.00;0.00;;;4.30;89.60;;;;;;4972206;28;20042;-73
2023/01/19 06:15:43;;;;;;;0.00;0.00;;;4.30;89.80;;;;;;4972405;28;20034;-73
2023/01/19 06:18:15;;;;;;;0.10;0.10;;;4.30;90.00;;;;;;4990081;28;20050;-73
2023/01/19 06:20:41;;;;;;;0.00;0.00;;;4.30;90.10;;;;;;4989538;28;20053;-73
2023/01/19 06:23:06;;;;;;;0.00;0.00;;;4.20;90.20;;;;;;4972383;28;20038;-74
2023/01/19 06:25:32;;;;;;;0.00;0.00;;;4.20;90.30;;;;;;4952212;28;20046;-73
2023/01/19 06:27:57;;;;;;;0.00;0.00;;;4.30;90.30;;;;;;4989251;28;20031;-73
2023/01/19 06:30:23;;;;;;;0.00;0.00;;;4.30;90.10;;;;;;4989410;28;20116;-73
2023/01/19 06:32:48;;;;;;;0.00;0.00;;;4.20;90.10;;;;;;4988883;28;20034;-74
2023/01/19 06:35:14;;;;;;;0.00;0.00;;;4.20;90.00;;;;;;4989381;28;20038;-75
2023/01/19 06:37:40;;;;;;;0.47;0.47;;;4.20;89.60;;;;;;4989511;28;20038;-74
2023/01/19 06:40:07;;;;;;;0.75;0.75;;;4.20;89.60;;;;;;4989260;28;20100;-73
2023/01/19 06:42:33;;;;;;;0.00;0.00;;;4.10;89.40;;;;;;4969675;28;20050;-73
2023/01/19 06:44:58;;;;;;;0.00;0.00;;;4.10;89.40;;;;;;4986150;28;20050;-74
2023/01/19 06:47:24;;;;;;;0.00;0.00;;;4.10;89.30;;;;;;4987613;28;20058;-74
2023/01/19 06:49:50;;;;;;;0.00;0.00;;;4.10;89.30;;;;;;4988237;28;20054;-73
2023/01/19 06:52:17;;;;;;;0.00;0.00;;;4.00;89.20;;;;;;4988531;28;20054;-74
2023/01/19 06:54:43;;;;;;;0.00;0.00;;;3.90;89.20;;;;;;4988326;28;20054;-74
2023/01/19 06:57:10;;;;;;;0.10;0.10;;;3.90;89.30;;;;;;4970974;28;20062;-74
2023/01/19 06:59:36;;;;;;;0.00;0.00;;;3.90;89.20;;;;;;4955304;28;20046;-74
2023/01/19 07:02:02;;;;;;;0.00;0.00;;;3.90;89.40;;;;;;4988170;28;20149;-75
2023/01/19 07:04:28;;;;;;;0.25;0.25;;;3.80;89.40;;;;;;4987381;28;20212;-75
2023/01/19 07:06:53;;;;;;;0.00;0.00;;;3.70;89.20;;;;;;4954000;28;20069;-73
2023/01/19 07:09:19;;;;;;;0.00;0.00;;;3.80;89.10;;;;;;4988482;28;20061;-72
2023/01/19 07:11:45;;;;;;;0.00;0.00;;;3.70;88.20;;;;;;4988094;28;20046;-72
2023/01/19 07:14:11;;;;;;;1.55;1.45;;;3.80;88.20;;;;;;4971000;28;20046;-72
2023/01/19 07:16:37;;;;;;;0.00;0.00;;;3.70;88.00;;;;;;4987903;28;20065;-71
2023/01/19 07:19:02;;;;;;;0.10;0.10;;;3.70;87.70;;;;;;4969083;28;20043;-69
2023/01/19 07:21:28;;;;;;;0.00;0.00;;;3.80;87.60;;;;;;4966358;28;20109;-72
2023/01/19 07:23:54;;;;;;;0.00;0.00;;;3.90;87.40;;;;;;4970105;28;20049;-71
2023/01/19 07:26:20;;;;;;;0.45;0.45;;;3.90;87.40;;;;;;4987701;28;20061;-72
2023/01/19 07:28:47;;;;;;;0.00;0.00;;;4.00;87.30;;;;;;4956183;28;20051;-68
2023/01/19 07:31:13;;;;;;;0.10;0.10;;;4.00;87.10;;;;;;4989394;28;20046;-72
2023/01/19 07:33:38;;;;;;;0.10;0.10;;;4.10;87.10;;;;;;4968698;28;20050;-71
2023/01/19 07:36:04;;;;;;;0.10;0.10;;;4.10;87.60;;;;;;4961699;28;20046;-70
2023/01/19 07:38:29;;;;;;;0.10;0.10;;;4.10;87.40;;;;;;4989633;28;20141;-71
2023/01/19 07:41:05;;;;;;;0.10;0.10;;;4.10;87.70;;;;;;4989199;28;20097;-70
2023/01/19 07:43:31;;;;;;;0.00;0.00;;;4.10;87.60;;;;;;4988205;28;20051;-71
2023/01/19 07:45:57;;;;;;;0.45;0.45;;;4.10;87.60;;;;;;4992623;28;20081;-71
2023/01/19 07:48:23;;;;;;;0.00;0.00;;;4.10;87.50;;;;;;4993065;28;20133;-71
2023/01/19 07:50:49;;;;;;;0.00;0.00;;;4.10;87.30;;;;;;4975637;28;20050;-71
2023/01/19 07:53:15;;;;;;;0.00;0.00;;;4.10;87.00;;;;;;4992598;28;20053;-71
2023/01/19 07:55:41;;;;;;;0.00;0.00;;;4.20;86.80;;;;;;4992995;28;20074;-72
2023/01/19 07:58:07;;;;;;;0.00;0.00;;;4.20;86.50;;;;;;4993346;28;20042;-71
2023/01/19 08:00:34;;;;;;;0.10;0.10;;;4.20;86.30;;;;;;4971959;28;20046;-71
2023/01/19 08:03:01;;;;;;;0.00;0.00;;;4.20;86.10;;;;;;4986065;28;20069;-71
2023/01/19 08:05:30;;;;;;;0.80;0.80;;;4.20;86.10;;;;;;4975159;28;20458;-72
2023/01/19 08:07:56;;;;;;;1.23;1.15;;;4.20;86.20;;;;;;4974511;28;20081;-72
2023/01/19 08:10:27;;;;;;;0.00;0.00;;;4.20;85.90;;;;;;4959121;28;20070;-72
2023/01/19 08:12:53;;;;;;;0.00;0.00;;;4.20;86.10;;;;;;4981216;28;20137;-72
2023/01/19 08:15:22;;;;;;;1.05;1.02;;;4.10;86.20;;;;;;4973232;28;20403;-72
2023/01/19 08:17:54;;;;;;;0.00;0.00;;;4.00;86.20;;;;;;4992268;28;20047;-72
2023/01/19 08:20:22;;;;;;;0.10;0.10;;;4.00;86.60;;;;;;4992341;28;20506;-72
2023/01/19 08:22:47;;;;;;;0.00;0.00;;;3.90;86.70;;;;;;4975350;28;20050;-72
2023/01/19 08:25:13;;;;;;;0.10;0.10;;;3.90;86.70;;;;;;4990867;28;20403;-72
2023/01/19 08:27:39;;;;;;;0.00;0.00;;;3.80;86.90;;;;;;4992027;28;20057;-72
2023/01/19 08:30:05;;;;;;;0.10;0.10;;;3.80;87.00;;;;;;4958775;28;20056;-72
2023/01/19 08:32:31;;;;;;;0.00;0.00;;;3.80;87.00;;;;;;4990456;28;20034;-72
2023/01/19 08:34:57;;;;;;;0.00;0.00;;;3.80;87.00;;;;;;4992025;28;20078;-72
2023/01/19 08:37:23;;;;;;;0.10;0.10;;;3.80;87.10;;;;;;4992192;28;20049;-72
2023/01/19 08:39:49;;;;;;;0.05;0.05;;;3.70;86.70;;;;;;4986800;28;20125;-72
2023/01/19 08:42:14;;;;;;;0.00;0.00;;;3.70;87.00;;;;;;4991739;28;20436;-72
2023/01/19 08:44:40;;;;;;;0.50;0.50;;;3.70;86.90;;;;;;4991394;28;20581;-72
2023/01/19 08:47:07;;;;;;;0.00;0.00;;;3.60;87.00;;;;;;4990649;28;20054;-72
2023/01/19 08:49:32;;;;;;;0.00;0.00;;;3.60;87.00;;;;;;4973265;28;20124;-72
2023/01/19 08:51:58;;;;;;;0.00;0.00;;;3.70;86.70;;;;;;4991483;28;20101;-72
2023/01/19 08:54:24;;;;;;;0.00;0.00;;;3.60;86.70;;;;;;4992002;28;20046;-72
2023/01/19 08:56:49;;;;;;;0.00;0.00;;;3.60;86.50;;;;;;4958360;28;20050;-72
2023/01/19 08:59:15;;;;;;;0.10;0.10;;;3.60;86.30;;;;;;4991756;28;20054;-71
2023/01/19 09:01:41;;;;;;;0.10;0.10;;;3.60;86.00;;;;;;4957651;28;20415;-72
2023/01/19 09:04:07;;;;;;;0.00;0.00;;;3.70;86.10;;;;;;4990979;28;20046;-73
2023/01/19 09:06:33;;;;;;;0.00;0.00;;;3.70;85.90;;;;;;4972094;28;20204;-73
2023/01/19 09:08:59;;;;;;;0.00;0.00;;;3.70;86.00;;;;;;4988041;28;20070;-72
2023/01/19 09:11:26;;;;;;;0.00;0.00;;;3.80;86.00;;;;;;4991758;28;20054;-73
2023/01/19 09:13:51;;;;;;;0.00;0.00;;;3.80;86.00;;;;;;4991099;28;20048;-72
2023/01/19 09:16:17;;;;;;;0.00;0.00;;;3.80;86.00;;;;;;4991333;28;20054;-73
2023/01/19 09:18:44;;;;;;;0.00;0.00;;;3.80;86.00;;;;;;4990570;28;20074;-71
2023/01/19 09:21:10;;;;;;;0.10;0.10;;;3.90;86.00;;;;;;4970366;28;20051;-73
2023/01/19 09:23:36;;;;;;;0.00;0.00;;;3.90;85.90;;;;;;4985677;28;20108;-72
2023/01/19 09:26:03;;;;;;;0.00;0.00;;;3.90;86.00;;;;;;4972530;28;20050;-71
2023/01/19 09:28:29;;;;;;;0.00;0.00;;;4.00;85.60;;;;;;4989221;28;20046;-71
2023/01/19 09:30:55;;;;;;;0.45;0.45;;;4.10;85.70;;;;;;4965535;28;20493;-71
2023/01/19 09:33:21;;;;;;;1.33;1.23;;;4.20;85.50;;;;;;4989914;28;20804;-72
2023/01/19 09:35:47;;;;;;;0.00;0.00;;;4.20;85.40;;;;;;4956110;28;20078;-72
2023/01/19 09:38:14;;;;;;;0.00;0.00;;;4.30;85.30;;;;;;4991087;28;20070;-71
2023/01/19 09:40:47;;;;;;;0.10;0.10;;;4.20;85.20;;;;;;4989163;28;20038;-71
2023/01/19 09:43:19;;;;;;;0.00;0.00;;;4.30;85.30;;;;;;4977789;28;20479;-71
2023/01/19 09:45:56;;;;;;;0.00;0.00;;;4.20;85.10;;;;;;4970134;28;20410;-71
2023/01/19 09:48:44;;;;;;;0.00;0.00;;;4.30;85.20;;;;;;4969228;28;20042;-71
2023/01/19 09:51:18;;;;;;;0.00;0.00;;;4.30;85.20;;;;;;4989233;28;20127;-71
2023/01/19 09:54:13;;;;;;;0.00;0.00;;;4.30;84.40;;;;;;4990288;28;20486;-71
2023/01/19 09:56:39;;;;;;;0.00;0.00;;;4.30;84.40;;;;;;4973440;28;20050;-71
2023/01/19 09:59:24;;;;;;;1.13;0.57;;;4.30;84.40;;;;;;4989935;28;20046;-71
2023/01/19 10:02:10;;;;;;;1.27;0.80;;;4.30;84.40;;;;;;4990077;28;20168;-71
2023/01/19 10:04:40;;;;;;;0.00;0.00;;;4.40;84.60;;;;;;4990716;28;20085;-71
2023/01/19 10:07:24;;;;;;;0.00;0.00;;;4.50;83.60;;;;;;4984928;28;20054;-72
2023/01/19 10:10:25;;;;;;;0.00;0.00;;;4.60;82.90;;;;;;4971297;28;20050;-71
2023/01/19 10:12:57;;;;;;;0.00;0.00;;;4.60;82.70;;;;;;4983662;28;20053;-71
2023/01/19 10:15:57;;;;;;;0.20;0.20;;;4.70;82.50;;;;;;4972691;28;20046;-71
2023/01/19 10:18:46;;;;;;;0.00;0.00;;;4.80;82.30;;;;;;4989147;28;20062;-71
2023/01/19 10:21:32;;;;;;;0.00;0.00;;;4.90;81.30;;;;;;4989875;28;20042;-71
2023/01/19 10:24:06;;;;;;;0.00;0.00;;;4.90;80.20;;;;;;4972965;28;20894;-71
2023/01/19 10:26:48;;;;;;;0.00;0.00;;;5.00;79.40;;;;;;4989502;28;20105;-71
2023/01/19 10:29:36;;;;;;;0.00;0.00;;;5.10;79.80;;;;;;4957538;28;20507;-71
2023/01/19 10:32:09;;;;;;;0.00;0.00;;;5.20;78.60;;;;;;4989724;28;20061;-71
2023/01/19 10:34:34;;;;;;;0.00;0.00;;;5.20;78.50;;;;;;4990103;28;20133;-71
2023/01/19 10:37:15;;;;;;;0.00;0.00;;;5.10;78.80;;;;;;4989756;28;20459;-71
2023/01/19 10:39:41;;;;;;;0.00;0.00;;;5.10;78.40;;;;;;4989975;28;20125;-71
2023/01/19 10:42:11;;;;;;;0.00;0.00;;;5.00;78.50;;;;;;4989687;28;20061;-71
2023/01/19 10:44:37;;;;;;;2.72;1.98;;;5.10;78.50;;;;;;4990019;28;20656;-71
2023/01/19 10:47:05;;;;;;;0.00;0.00;;;5.00;78.70;;;;;;4955837;28;20050;-71
2023/01/19 10:49:39;;;;;;;0.00;0.00;;;5.00;79.10;;;;;;4989570;28;20057;-71
2023/01/19 10:52:06;;;;;;;0.03;0.03;;;5.10;79.20;;;;;;4989360;28;20046;-71
2023/01/19 10:54:33;;;;;;;0.00;0.00;;;5.10;79.30;;;;;;4989490;28;20085;-71
2023/01/19 10:57:06;;;;;;;0.00;0.00;;;5.20;78.60;;;;;;4989475;28;20046;-71
2023/01/19 10:59:51;;;;;;;0.00;0.00;;;5.20;78.80;;;;;;4989561;28;20050;-72
2023/01/19 11:02:19;;;;;;;0.00;0.00;;;5.20;78.70;;;;;;4989614;28;20153;-71
2023/01/19 11:04:48;;;;;;;0.00;0.00;;;5.20;77.90;;;;;;4988690;28;20039;-71
2023/01/19 11:07:34;;;;;;;0.00;0.00;;;5.30;76.60;;;;;;4970327;28;20449;-71
2023/01/19 11:10:15;;;;;;;0.00;0.00;;;5.20;77.10;;;;;;4988484;28;20135;-71
2023/01/19 11:12:42;;;;;;;0.00;0.00;;;5.30;77.00;;;;;;4988806;28;20121;-71
2023/01/19 11:15:30;;;;;;;0.00;0.00;;;5.30;75.80;;;;;;4970924;28;20042;-71
2023/01/19 11:17:56;;;;;;;0.30;0.30;;;5.50;74.50;;;;;;4970727;28;20484;-70
2023/01/19 11:20:45;;;;;;;0.00;0.00;;;5.40;75.10;;;;;;4991248;28;21478;-70
2023/01/19 11:23:13;;;;;;;0.05;0.05;;;5.50;74.30;;;;;;4992182;28;20406;-70
2023/01/19 11:25:39;;;;;;;0.00;0.00;;;5.60;75.40;;;;;;4974794;28;20129;-71
2023/01/19 11:28:05;;;;;;;0.10;0.10;;;5.60;75.30;;;;;;4991893;28;20054;-70
2023/01/19 11:30:33;;;;;;;0.00;0.00;;;5.60;76.30;;;;;;4991917;28;20038;-70
2023/01/19 11:32:59;;;;;;;0.00;0.00;;;5.70;76.90;;;;;;4992093;28;20102;-70
2023/01/19 11:35:38;;;;;;;0.00;0.00;;;5.70;77.40;;;;;;4992072;28;20455;-70
2023/01/19 11:38:26;;;;;;;0.00;0.00;;;5.90;77.20;;;;;;4974803;28;20828;-70
2023/01/19 11:40:54;;;;;;;3.78;1.52;;;5.90;76.40;;;;;;4991989;28;20140;-70
2023/01/19 11:43:22;;;;;;;0.00;0.00;;;5.90;76.00;;;;;;4974290;28;20085;-70
2023/01/19 11:45:48;;;;;;;0.00;0.00;;;6.00;75.90;;;;;;4991325;28;20103;-70
2023/01/19 11:48:34;;;;;;;0.00;0.00;;;6.00;74.70;;;;;;4974612;28;20046;-70
2023/01/19 11:51:03;;;;;;;0.00;0.00;;;6.10;74.00;;;;;;4991618;28;20119;-71
2023/01/19 11:53:33;;;;;;;0.00;0.00;;;6.00;73.60;;;;;;4987961;28;20495;-70
2023/01/19 11:56:10;;;;;;;0.00;0.00;;;6.10;73.70;;;;;;4991250;28;20042;-70
2023/01/19 11:58:42;;;;;;;0.00;0.00;;;6.10;71.60;;;;;;4991546;28;20055;-70
2023/01/19 12:01:28;;;;;;;0.10;0.10;;;6.10;70.50;;;;;;4990952;28;20046;-71
2023/01/19 12:04:17;;;;;;;0.00;0.00;;;6.00;72.00;;;;;;4988738;28;20050;-71
2023/01/19 12:06:47;;;;;;;0.00;0.00;;;5.90;72.40;;;;;;4987717;28;20491;-70
2023/01/19 12:09:18;;;;;;;0.00;0.00;;;5.80;72.90;;;;;;4991277;28;20170;-71
2023/01/19 12:11:52;;;;;;;0.00;0.00;;;5.70;73.30;;;;;;4986208;28;20082;-72
2023/01/19 12:14:30;;;;;;;0.00;0.00;;;5.50;73.90;;;;;;4991434;28;20580;-71
2023/01/19 12:16:59;;;;;;;0.00;0.00;;;5.60;74.60;;;;;;4971505;28;20077;-71
2023/01/19 12:19:34;;;;;;;0.00;0.00;;;5.50;74.60;;;;;;4991537;28;20054;-71
2023/01/19 12:22:01;;;;;;;0.00;0.00;;;5.50;75.40;;;;;;4991273;28;20034;-71
2023/01/19 12:24:34;;;;;;;0.00;0.00;;;5.40;75.20;;;;;;4991269;28;20035;-72
2023/01/19 12:27:04;;;;;;;1.42;1.33;;;5.30;75.80;;;;;;4991369;28;20054;-70
2023/01/19 12:29:34;;;;;;;0.00;0.00;;;5.30;76.60;;;;;;4991527;28;20403;-71
2023/01/19 12:32:18;;;;;;;0.00;0.00;;;5.30;76.40;;;;;;4991304;28;20077;-71
2023/01/19 12:34:46;;;;;;;0.00;0.00;;;5.20;76.70;;;;;;4991463;28;20100;-71
2023/01/19 12:37:31;;;;;;;0.10;0.10;;;5.20;77.10;;;;;;4992006;28;20046;-71
2023/01/19 12:39:59;;;;;;;0.10;0.10;;;5.10;77.60;;;;;;4985079;28;20058;-71
2023/01/19 12:42:26;;;;;;;0.00;0.00;;;5.00;78.40;;;;;;4991292;28;20048;-71
2023/01/19 12:45:07;;;;;;;0.00;0.00;;;5.10;78.40;;;;;;4991923;28;20559;-70
2023/01/19 12:47:34;;;;;;;0.00;0.00;;;5.00;78.30;;;;;;4991369;28;20049;-70
2023/01/19 12:50:05;;;;;;;0.00;0.00;;;4.90;77.30;;;;;;4989560;28;20040;-70
2023/01/19 12:52:36;;;;;;;0.00;0.00;;;4.70;76.60;;;;;;4990842;28;20090;-71
2023/01/19 12:55:13;;;;;;;0.08;0.08;;;4.70;76.90;;;;;;4991135;28;20034;-71
2023/01/19 12:57:45;;;;;;;0.00;0.00;;;4.60;77.60;;;;;;4974203;28;20042;-70
2023/01/19 13:00:23;;;;;;;0.00;0.00;;;4.60;78.20;;;;;;4991585;28;20462;-70
2023/01/19 13:03:03;;;;;;;0.00;0.00;;;4.60;78.90;;;;;;4991609;28;20052;-71
2023/01/19 13:05:38;;;;;;;0.00;0.00;;;4.60;79.10;;;;;;4973776;28;20046;-70
2023/01/19 13:08:11;;;;;;;0.00;0.00;;;4.60;79.20;;;;;;4991128;28;20484;-70
2023/01/19 13:11:01;;;;;;;0.00;0.00;;;4.60;79.30;;;;;;4973553;28;20059;-69
2023/01/19 13:13:48;;;;;;;0.10;0.10;;;4.60;78.80;;;;;;4976767;28;20047;-68
2023/01/19 13:16:26;;;;;;;0.05;0.05;;;4.60;78.50;;;;;;4968622;28;20128;-69
2023/01/19 13:19:00;;;;;;;0.00;0.00;;;4.60;77.40;;;;;;4990623;28;20065;-68